sensor_id;sensor_type;location;lat;lon;timestamp;P1;durP1;ratioP1;P2;durP2;ratioP2
43620;SDS011;29213;50.770;7.298;2023-04-01T00:00:16;2.58;;;0.90;;
43620;SDS011;29213;50.770;7.298;2023-04-01T00:02:42;2.03;;;0.70;;
43620;SDS011;29213;50.770;7.298;2023-04-01T00:05:08;2.60;;;0.70;;
43620;SDS011;29213;50.770;7.298;2023-04-01T00:07:35;2.00;;;0.65;;
43620;SDS011;29213;50.770;7.298;2023-04-01T00:10:02;2.88;;;0.70;;
43620;SDS011;29213;50.770;7.298;2023-04-01T00:12:28;1.75;;;0.70;;
43620;SDS011;29213;50.770;7.298;2023-04-01T00:14:54;2.22;;;0.82;;
43620;SDS011;29213;50.770;7.298;2023-04-01T00:17:19;3.17;;;0.70;;
43620;SDS011;29213;50.770;7.298;2023-04-01T00:19:45;2.17;;;0.73;;
43620;SDS011;29213;50.770;7.298;2023-04-01T00:22:10;1.60;;;0.65;;
43620;SDS011;29213;50.770;7.298;2023-04-01T00:24:37;3.20;;;0.70;;
43620;SDS011;29213;50.770;7.298;2023-04-01T00:27:03;1.73;;;0.70;;
43620;SDS011;29213;50.770;7.298;2023-04-01T00:29:29;2.08;;;0.70;;
43620;SDS011;29213;50.770;7.298;2023-04-01T00:31:56;1.88;;;0.75;;
43620;SDS011;29213;50.770;7.298;2023-04-01T00:34:22;2.08;;;0.70;;
43620;SDS011;29213;50.770;7.298;2023-04-01T00:36:48;2.30;;;0.82;;
43620;SDS011;29213;50.770;7.298;2023-04-01T00:39:15;1.85;;;0.80;;
43620;SDS011;29213;50.770;7.298;2023-04-01T00:41:40;2.80;;;0.90;;
43620;SDS011;29213;50.770;7.298;2023-04-01T00:44:20;2.28;;;0.73;;
43620;SDS011;29213;50.770;7.298;2023-04-01T00:46:46;2.47;;;0.85;;
43620;SDS011;29213;50.770;7.298;2023-04-01T00:49:12;2.33;;;0.77;;
43620;SDS011;29213;50.770;7.298;2023-04-01T00:51:40;2.45;;;0.70;;
43620;SDS011;29213;50.770;7.298;2023-04-01T00:54:07;2.83;;;0.80;;
43620;SDS011;29213;50.770;7.298;2023-04-01T00:56:36;2.10;;;0.90;;
43620;SDS011;29213;50.770;7.298;2023-04-01T01:01:39;2.75;;;0.88;;
43620;SDS011;29213;50.770;7.298;2023-04-01T01:04:05;2.90;;;0.90;;
43620;SDS011;29213;50.770;7.298;2023-04-01T01:11:28;3.08;;;1.20;;
43620;SDS011;29213;50.770;7.298;2023-04-01T01:14:05;3.95;;;1.10;;
43620;SDS011;29213;50.770;7.298;2023-04-01T01:16:44;3.20;;;1.08;;
43620;SDS011;29213;50.770;7.298;2023-04-01T01:19:33;3.22;;;1.00;;
43620;SDS011;29213;50.770;7.298;2023-04-01T01:22:12;3.10;;;1.00;;
43620;SDS011;29213;50.770;7.298;2023-04-01T01:27:56;2.83;;;0.70;;
43620;SDS011;29213;50.770;7.298;2023-04-01T01:33:32;2.13;;;0.70;;
43620;SDS011;29213;50.770;7.298;2023-04-01T01:36:08;3.58;;;0.70;;
43620;SDS011;29213;50.770;7.298;2023-04-01T01:38:38;2.50;;;0.75;;
43620;SDS011;29213;50.770;7.298;2023-04-01T01:41:05;2.13;;;0.63;;
43620;SDS011;29213;50.770;7.298;2023-04-01T01:43:36;2.25;;;0.60;;
43620;SDS011;29213;50.770;7.298;2023-04-01T01:46:07;3.63;;;0.77;;
43620;SDS011;29213;50.770;7.298;2023-04-01T01:48:36;1.52;;;0.50;;
43620;SDS011;29213;50.770;7.298;2023-04-01T01:51:05;1.45;;;0.47;;
43620;SDS011;29213;50.770;7.298;2023-04-01T01:53:31;1.58;;;0.60;;
43620;SDS011;29213;50.770;7.298;2023-04-01T01:55:57;2.45;;;0.70;;
43620;SDS011;29213;50.770;7.298;2023-04-01T01:58:30;2.15;;;0.50;;
43620;SDS011;29213;50.770;7.298;2023-04-01T02:01:06;2.45;;;0.52;;
43620;SDS011;29213;50.770;7.298;2023-04-01T02:03:36;1.27;;;0.63;;
43620;SDS011;29213;50.770;7.298;2023-04-01T02:06:03;1.38;;;0.60;;
43620;SDS011;29213;50.770;7.298;2023-04-01T02:08:34;1.48;;;0.70;;
43620;SDS011;29213;50.770;7.298;2023-04-01T02:11:03;1.38;;;0.52;;
43620;SDS011;29213;50.770;7.298;2023-04-01T02:13:34;1.38;;;0.60;;
43620;SDS011;29213;50.770;7.298;2023-04-01T02:16:02;1.98;;;0.50;;
43620;SDS011;29213;50.770;7.298;2023-04-01T02:18:34;1.02;;;0.50;;
43620;SDS011;29213;50.770;7.298;2023-04-01T02:21:02;1.42;;;0.50;;
43620;SDS011;29213;50.770;7.298;2023-04-01T02:23:30;3.45;;;0.70;;
43620;SDS011;29213;50.770;7.298;2023-04-01T02:25:59;2.90;;;0.70;;
43620;SDS011;29213;50.770;7.298;2023-04-01T02:28:25;2.25;;;0.63;;
43620;SDS011;29213;50.770;7.298;2023-04-01T02:30:53;0.90;;;0.47;;
43620;SDS011;29213;50.770;7.298;2023-04-01T02:33:19;2.92;;;0.80;;
43620;SDS011;29213;50.770;7.298;2023-04-01T02:35:46;1.10;;;0.40;;
43620;SDS011;29213;50.770;7.298;2023-04-01T02:38:11;1.52;;;0.52;;
43620;SDS011;29213;50.770;7.298;2023-04-01T02:40:47;1.38;;;0.50;;
43620;SDS011;29213;50.770;7.298;2023-04-01T02:43:14;2.30;;;0.70;;
43620;SDS011;29213;50.770;7.298;2023-04-01T02:45:42;1.23;;;0.52;;
43620;SDS011;29213;50.770;7.298;2023-04-01T02:48:07;1.33;;;0.50;;
43620;SDS011;29213;50.770;7.298;2023-04-01T02:50:33;1.75;;;0.65;;
43620;SDS011;29213;50.770;7.298;2023-04-01T02:52:59;2.25;;;0.77;;
43620;SDS011;29213;50.770;7.298;2023-04-01T02:55:25;1.40;;;0.60;;
43620;SDS011;29213;50.770;7.298;2023-04-01T02:57:51;1.48;;;0.60;;
43620;SDS011;29213;50.770;7.298;2023-04-01T03:00:16;2.03;;;0.57;;
43620;SDS011;29213;50.770;7.298;2023-04-01T03:02:42;1.67;;;0.65;;
43620;SDS011;29213;50.770;7.298;2023-04-01T03:05:09;1.95;;;0.60;;
43620;SDS011;29213;50.770;7.298;2023-04-01T03:07:35;1.95;;;0.70;;
43620;SDS011;29213;50.770;7.298;2023-04-01T03:10:01;1.10;;;0.50;;
43620;SDS011;29213;50.770;7.298;2023-04-01T03:12:26;2.33;;;0.85;;
43620;SDS011;29213;50.770;7.298;2023-04-01T03:14:52;2.15;;;0.60;;
43620;SDS011;29213;50.770;7.298;2023-04-01T03:17:17;1.88;;;0.50;;
43620;SDS011;29213;50.770;7.298;2023-04-01T03:19:42;1.80;;;0.63;;
43620;SDS011;29213;50.770;7.298;2023-04-01T03:22:09;2.13;;;0.60;;
43620;SDS011;29213;50.770;7.298;2023-04-01T03:24:36;1.80;;;0.50;;
43620;SDS011;29213;50.770;7.298;2023-04-01T03:27:01;1.80;;;0.70;;
43620;SDS011;29213;50.770;7.298;2023-04-01T03:29:27;1.55;;;0.60;;
43620;SDS011;29213;50.770;7.298;2023-04-01T03:31:52;1.38;;;0.50;;
43620;SDS011;29213;50.770;7.298;2023-04-01T03:34:17;3.47;;;0.82;;
43620;SDS011;29213;50.770;7.298;2023-04-01T03:36:43;2.30;;;0.60;;
43620;SDS011;29213;50.770;7.298;2023-04-01T03:39:08;2.33;;;0.80;;
43620;SDS011;29213;50.770;7.298;2023-04-01T03:41:35;1.70;;;0.52;;
43620;SDS011;29213;50.770;7.298;2023-04-01T03:44:02;1.33;;;0.50;;
43620;SDS011;29213;50.770;7.298;2023-04-01T03:46:27;0.73;;;0.40;;
43620;SDS011;29213;50.770;7.298;2023-04-01T03:48:53;1.25;;;0.50;;
43620;SDS011;29213;50.770;7.298;2023-04-01T03:51:18;1.30;;;0.50;;
43620;SDS011;29213;50.770;7.298;2023-04-01T03:53:44;2.30;;;0.60;;
43620;SDS011;29213;50.770;7.298;2023-04-01T03:56:09;1.65;;;0.57;;
43620;SDS011;29213;50.770;7.298;2023-04-01T03:58:35;2.10;;;0.60;;
43620;SDS011;29213;50.770;7.298;2023-04-01T04:01:01;1.52;;;0.60;;
43620;SDS011;29213;50.770;7.298;2023-04-01T04:03:27;1.25;;;0.50;;
43620;SDS011;29213;50.770;7.298;2023-04-01T04:05:53;1.20;;;0.50;;
43620;SDS011;29213;50.770;7.298;2023-04-01T04:08:18;0.88;;;0.55;;
43620;SDS011;29213;50.770;7.298;2023-04-01T04:10:44;1.98;;;0.47;;
43620;SDS011;29213;50.770;7.298;2023-04-01T04:13:10;2.00;;;0.57;;
43620;SDS011;29213;50.770;7.298;2023-04-01T04:15:35;0.68;;;0.40;;
43620;SDS011;29213;50.770;7.298;2023-04-01T04:18:01;1.52;;;0.43;;
43620;SDS011;29213;50.770;7.298;2023-04-01T04:20:26;1.30;;;0.50;;
43620;SDS011;29213;50.770;7.298;2023-04-01T04:22:51;0.50;;;0.40;;
43620;SDS011;29213;50.770;7.298;2023-04-01T04:25:17;1.48;;;0.50;;
43620;SDS011;29213;50.770;7.298;2023-04-01T04:27:43;0.90;;;0.50;;
43620;SDS011;29213;50.770;7.298;2023-04-01T04:30:09;0.80;;;0.40;;
43620;SDS011;29213;50.770;7.298;2023-04-01T04:32:34;1.02;;;0.45;;
43620;SDS011;29213;50.770;7.298;2023-04-01T04:35:00;1.48;;;0.50;;
43620;SDS011;29213;50.770;7.298;2023-04-01T04:37:26;1.33;;;0.32;;
43620;SDS011;29213;50.770;7.298;2023-04-01T04:39:52;0.35;;;0.30;;
43620;SDS011;29213;50.770;7.298;2023-04-01T04:42:17;0.95;;;0.43;;
43620;SDS011;29213;50.770;7.298;2023-04-01T04:44:42;0.60;;;0.40;;
43620;SDS011;29213;50.770;7.298;2023-04-01T04:47:09;0.63;;;0.40;;
43620;SDS011;29213;50.770;7.298;2023-04-01T04:49:35;0.50;;;0.30;;
43620;SDS011;29213;50.770;7.298;2023-04-01T04:52:00;1.38;;;0.50;;
43620;SDS011;29213;50.770;7.298;2023-04-01T04:54:25;0.50;;;0.35;;
43620;SDS011;29213;50.770;7.298;2023-04-01T04:56:54;2.17;;;0.52;;
43620;SDS011;29213;50.770;7.298;2023-04-01T04:59:19;0.68;;;0.40;;
43620;SDS011;29213;50.770;7.298;2023-04-01T05:01:45;0.55;;;0.30;;
43620;SDS011;29213;50.770;7.298;2023-04-01T05:04:10;0.70;;;0.30;;
43620;SDS011;29213;50.770;7.298;2023-04-01T05:06:36;0.95;;;0.35;;
43620;SDS011;29213;50.770;7.298;2023-04-01T05:09:01;0.43;;;0.30;;
43620;SDS011;29213;50.770;7.298;2023-04-01T05:11:26;1.00;;;0.40;;
43620;SDS011;29213;50.770;7.298;2023-04-01T05:13:52;0.98;;;0.40;;
43620;SDS011;29213;50.770;7.298;2023-04-01T05:16:18;0.52;;;0.32;;
43620;SDS011;29213;50.770;7.298;2023-04-01T05:18:45;0.80;;;0.40;;
43620;SDS011;29213;50.770;7.298;2023-04-01T05:21:11;0.52;;;0.28;;
43620;SDS011;29213;50.770;7.298;2023-04-01T05:23:38;0.65;;;0.40;;
43620;SDS011;29213;50.770;7.298;2023-04-01T05:26:04;1.45;;;0.40;;
43620;SDS011;29213;50.770;7.298;2023-04-01T05:28:34;1.33;;;0.40;;
43620;SDS011;29213;50.770;7.298;2023-04-01T05:31:00;1.00;;;0.50;;
43620;SDS011;29213;50.770;7.298;2023-04-01T05:33:27;1.90;;;0.40;;
43620;SDS011;29213;50.770;7.298;2023-04-01T05:35:53;0.55;;;0.38;;
43620;SDS011;29213;50.770;7.298;2023-04-01T05:38:19;0.88;;;0.43;;
43620;SDS011;29213;50.770;7.298;2023-04-01T05:40:45;1.23;;;0.50;;
43620;SDS011;29213;50.770;7.298;2023-04-01T05:43:10;1.02;;;0.50;;
43620;SDS011;29213;50.770;7.298;2023-04-01T05:45:36;1.75;;;0.50;;
43620;SDS011;29213;50.770;7.298;2023-04-01T05:48:02;1.10;;;0.47;;
43620;SDS011;29213;50.770;7.298;2023-04-01T05:50:28;0.38;;;0.38;;
43620;SDS011;29213;50.770;7.298;2023-04-01T05:52:54;1.27;;;0.40;;
43620;SDS011;29213;50.770;7.298;2023-04-01T05:55:19;0.52;;;0.50;;
43620;SDS011;29213;50.770;7.298;2023-04-01T05:57:45;1.98;;;0.60;;
43620;SDS011;29213;50.770;7.298;2023-04-01T06:00:11;1.13;;;0.47;;
43620;SDS011;29213;50.770;7.298;2023-04-01T06:02:38;1.27;;;0.47;;
43620;SDS011;29213;50.770;7.298;2023-04-01T06:05:12;0.80;;;0.40;;
43620;SDS011;29213;50.770;7.298;2023-04-01T06:07:50;0.68;;;0.40;;
43620;SDS011;29213;50.770;7.298;2023-04-01T06:10:20;1.05;;;0.40;;
43620;SDS011;29213;50.770;7.298;2023-04-01T06:15:47;1.08;;;0.40;;
43620;SDS011;29213;50.770;7.298;2023-04-01T06:26:39;2.65;;;0.50;;
43620;SDS011;29213;50.770;7.298;2023-04-01T06:31:52;0.60;;;0.32;;
43620;SDS011;29213;50.770;7.298;2023-04-01T06:35:22;0.55;;;0.40;;
43620;SDS011;29213;50.770;7.298;2023-04-01T06:48:53;1.63;;;0.43;;
43620;SDS011;29213;50.770;7.298;2023-04-01T06:51:49;0.57;;;0.40;;
43620;SDS011;29213;50.770;7.298;2023-04-01T06:54:33;0.88;;;0.40;;
43620;SDS011;29213;50.770;7.298;2023-04-01T06:59:55;0.90;;;0.50;;
43620;SDS011;29213;50.770;7.298;2023-04-01T07:02:38;1.50;;;0.60;;
43620;SDS011;29213;50.770;7.298;2023-04-01T07:05:08;0.90;;;0.50;;
43620;SDS011;29213;50.770;7.298;2023-04-01T07:07:44;1.75;;;0.60;;
43620;SDS011;29213;50.770;7.298;2023-04-01T07:10:25;0.93;;;0.60;;
43620;SDS011;29213;50.770;7.298;2023-04-01T07:15:54;3.15;;;0.95;;
43620;SDS011;29213;50.770;7.298;2023-04-01T07:18:41;3.53;;;1.65;;
43620;SDS011;29213;50.770;7.298;2023-04-01T07:21:22;4.18;;;1.83;;
43620;SDS011;29213;50.770;7.298;2023-04-01T07:23:52;2.85;;;1.30;;
43620;SDS011;29213;50.770;7.298;2023-04-01T07:26:26;3.28;;;1.70;;
43620;SDS011;29213;50.770;7.298;2023-04-01T07:28:53;3.90;;;1.48;;
43620;SDS011;29213;50.770;7.298;2023-04-01T07:36:47;2.03;;;1.00;;
43620;SDS011;29213;50.770;7.298;2023-04-01T07:39:35;1.70;;;0.90;;
43620;SDS011;29213;50.770;7.298;2023-04-01T07:42:35;2.80;;;1.20;;
43620;SDS011;29213;50.770;7.298;2023-04-01T07:45:14;2.60;;;1.20;;
43620;SDS011;29213;50.770;7.298;2023-04-01T07:47:50;2.15;;;1.05;;
43620;SDS011;29213;50.770;7.298;2023-04-01T07:50:24;2.50;;;1.10;;
43620;SDS011;29213;50.770;7.298;2023-04-01T07:56:05;2.03;;;1.10;;
43620;SDS011;29213;50.770;7.298;2023-04-01T07:58:48;2.60;;;1.25;;
43620;SDS011;29213;50.770;7.298;2023-04-01T08:06:53;3.08;;;1.35;;
43620;SDS011;29213;50.770;7.298;2023-04-01T08:09:43;7.10;;;5.07;;
43620;SDS011;29213;50.770;7.298;2023-04-01T08:12:31;3.20;;;1.67;;
43620;SDS011;29213;50.770;7.298;2023-04-01T08:20:32;3.28;;;1.48;;
43620;SDS011;29213;50.770;7.298;2023-04-01T08:25:54;2.92;;;1.10;;
43620;SDS011;29213;50.770;7.298;2023-04-01T08:28:29;3.33;;;1.25;;
43620;SDS011;29213;50.770;7.298;2023-04-01T08:33:29;2.45;;;1.10;;
43620;SDS011;29213;50.770;7.298;2023-04-01T08:47:20;2.33;;;1.02;;
43620;SDS011;29213;50.770;7.298;2023-04-01T08:52:49;1.50;;;0.77;;
43620;SDS011;29213;50.770;7.298;2023-04-01T08:55:43;1.67;;;0.70;;
43620;SDS011;29213;50.770;7.298;2023-04-01T09:10:18;0.63;;;0.50;;
43620;SDS011;29213;50.770;7.298;2023-04-01T09:15:51;2.72;;;1.10;;
43620;SDS011;29213;50.770;7.298;2023-04-01T09:21:19;1.63;;;0.60;;
43620;SDS011;29213;50.770;7.298;2023-04-01T09:24:18;0.60;;;0.40;;
43620;SDS011;29213;50.770;7.298;2023-04-01T09:38:20;1.83;;;1.00;;
43620;SDS011;29213;50.770;7.298;2023-04-01T09:40:55;1.38;;;0.60;;
43620;SDS011;29213;50.770;7.298;2023-04-01T09:43:23;0.80;;;0.50;;
43620;SDS011;29213;50.770;7.298;2023-04-01T09:46:15;1.02;;;0.50;;
43620;SDS011;29213;50.770;7.298;2023-04-01T09:49:11;0.90;;;0.45;;
43620;SDS011;29213;50.770;7.298;2023-04-01T09:51:59;0.90;;;0.50;;
43620;SDS011;29213;50.770;7.298;2023-04-01T09:54:52;1.60;;;0.50;;
43620;SDS011;29213;50.770;7.298;2023-04-01T10:05:48;2.60;;;0.68;;
43620;SDS011;29213;50.770;7.298;2023-04-01T10:17:00;1.60;;;0.80;;
43620;SDS011;29213;50.770;7.298;2023-04-01T10:28:36;1.00;;;0.57;;
43620;SDS011;29213;50.770;7.298;2023-04-01T10:36:52;1.63;;;0.55;;
43620;SDS011;29213;50.770;7.298;2023-04-01T10:47:32;1.40;;;0.80;;
43620;SDS011;29213;50.770;7.298;2023-04-01T10:50:33;0.73;;;0.50;;
43620;SDS011;29213;50.770;7.298;2023-04-01T10:53:15;1.27;;;0.70;;
43620;SDS011;29213;50.770;7.298;2023-04-01T11:15:49;1.20;;;0.50;;
43620;SDS011;29213;50.770;7.298;2023-04-01T11:24:20;0.63;;;0.55;;
43620;SDS011;29213;50.770;7.298;2023-04-01T11:29:53;0.47;;;0.47;;
43620;SDS011;29213;50.770;7.298;2023-04-01T11:32:29;1.35;;;0.68;;
43620;SDS011;29213;50.770;7.298;2023-04-01T11:35:20;1.20;;;0.60;;
43620;SDS011;29213;50.770;7.298;2023-04-01T11:40:47;1.10;;;0.60;;
43620;SDS011;29213;50.770;7.298;2023-04-01T11:43:36;0.75;;;0.50;;
43620;SDS011;29213;50.770;7.298;2023-04-01T11:46:11;0.82;;;0.50;;
43620;SDS011;29213;50.770;7.298;2023-04-01T12:17:49;0.52;;;0.47;;
43620;SDS011;29213;50.770;7.298;2023-04-01T12:23:02;0.60;;;0.50;;
43620;SDS011;29213;50.770;7.298;2023-04-01T12:31:42;0.75;;;0.50;;
43620;SDS011;29213;50.770;7.298;2023-04-01T12:37:04;1.45;;;0.50;;
43620;SDS011;29213;50.770;7.298;2023-04-01T12:39:37;0.90;;;0.55;;
43620;SDS011;29213;50.770;7.298;2023-04-01T12:42:38;0.82;;;0.50;;
43620;SDS011;29213;50.770;7.298;2023-04-01T12:45:27;1.17;;;0.60;;
43620;SDS011;29213;50.770;7.298;2023-04-01T12:53:42;0.90;;;0.50;;
43620;SDS011;29213;50.770;7.298;2023-04-01T12:56:45;0.95;;;0.50;;
43620;SDS011;29213;50.770;7.298;2023-04-01T13:02:13;1.17;;;0.55;;
43620;SDS011;29213;50.770;7.298;2023-04-01T13:18:03;0.75;;;0.50;;
43620;SDS011;29213;50.770;7.298;2023-04-01T13:21:12;0.60;;;0.50;;
43620;SDS011;29213;50.770;7.298;2023-04-01T13:24:21;1.13;;;0.60;;
43620;SDS011;29213;50.770;7.298;2023-04-01T13:29:21;1.20;;;0.50;;
43620;SDS011;29213;50.770;7.298;2023-04-01T13:31:55;1.65;;;0.80;;
43620;SDS011;29213;50.770;7.298;2023-04-01T13:35:05;0.70;;;0.50;;
43620;SDS011;29213;50.770;7.298;2023-04-01T13:40:47;0.65;;;0.50;;
43620;SDS011;29213;50.770;7.298;2023-04-01T13:43:41;0.50;;;0.40;;
43620;SDS011;29213;50.770;7.298;2023-04-01T13:46:21;0.90;;;0.50;;
43620;SDS011;29213;50.770;7.298;2023-04-01T13:55:06;0.45;;;0.40;;
43620;SDS011;29213;50.770;7.298;2023-04-01T14:06:13;1.90;;;0.80;;
43620;SDS011;29213;50.770;7.298;2023-04-01T14:12:19;1.17;;;0.60;;
43620;SDS011;29213;50.770;7.298;2023-04-01T14:19:18;1.38;;;0.70;;
43620;SDS011;29213;50.770;7.298;2023-04-01T14:22:10;0.95;;;0.52;;
43620;SDS011;29213;50.770;7.298;2023-04-01T14:30:41;0.70;;;0.60;;
43620;SDS011;29213;50.770;7.298;2023-04-01T14:33:30;0.80;;;0.63;;
43620;SDS011;29213;50.770;7.298;2023-04-01T14:39:11;3.25;;;1.25;;
43620;SDS011;29213;50.770;7.298;2023-04-01T14:42:05;2.53;;;0.95;;
43620;SDS011;29213;50.770;7.298;2023-04-01T14:44:52;2.28;;;1.10;;
43620;SDS011;29213;50.770;7.298;2023-04-01T14:47:43;1.30;;;0.80;;
43620;SDS011;29213;50.770;7.298;2023-04-01T14:50:13;2.13;;;0.90;;
43620;SDS011;29213;50.770;7.298;2023-04-01T14:52:44;2.08;;;1.08;;
43620;SDS011;29213;50.770;7.298;2023-04-01T14:58:04;1.00;;;0.65;;
43620;SDS011;29213;50.770;7.298;2023-04-01T15:00:42;1.48;;;0.80;;
43620;SDS011;29213;50.770;7.298;2023-04-01T15:03:15;2.92;;;0.70;;
43620;SDS011;29213;50.770;7.298;2023-04-01T15:06:27;1.63;;;0.80;;
43620;SDS011;29213;50.770;7.298;2023-04-01T15:14:32;1.40;;;0.70;;
43620;SDS011;29213;50.770;7.298;2023-04-01T15:17:19;2.47;;;0.90;;
43620;SDS011;29213;50.770;7.298;2023-04-01T15:23:06;1.40;;;0.80;;
43620;SDS011;29213;50.770;7.298;2023-04-01T15:28:57;1.88;;;1.00;;
43620;SDS011;29213;50.770;7.298;2023-04-01T15:31:43;3.47;;;1.00;;
43620;SDS011;29213;50.770;7.298;2023-04-01T15:48:06;1.38;;;0.77;;
43620;SDS011;29213;50.770;7.298;2023-04-01T16:00:10;2.20;;;0.93;;
43620;SDS011;29213;50.770;7.298;2023-04-01T16:10:22;1.58;;;0.90;;
43620;SDS011;29213;50.770;7.298;2023-04-01T16:13:21;1.67;;;1.00;;
43620;SDS011;29213;50.770;7.298;2023-04-01T16:18:44;2.15;;;1.10;;
43620;SDS011;29213;50.770;7.298;2023-04-01T16:21:24;2.80;;;1.10;;
43620;SDS011;29213;50.770;7.298;2023-04-01T16:24:05;2.45;;;1.20;;
43620;SDS011;29213;50.770;7.298;2023-04-01T16:26:44;3.00;;;1.30;;
43620;SDS011;29213;50.770;7.298;2023-04-01T16:29:27;3.10;;;1.60;;
43620;SDS011;29213;50.770;7.298;2023-04-01T16:34:31;2.33;;;1.10;;
43620;SDS011;29213;50.770;7.298;2023-04-01T16:37:09;3.30;;;1.10;;
43620;SDS011;29213;50.770;7.298;2023-04-01T16:40:01;1.52;;;0.90;;
43620;SDS011;29213;50.770;7.298;2023-04-01T16:42:43;2.40;;;1.10;;
43620;SDS011;29213;50.770;7.298;2023-04-01T16:47:57;2.00;;;1.05;;
43620;SDS011;29213;50.770;7.298;2023-04-01T16:51:09;2.67;;;1.10;;
43620;SDS011;29213;50.770;7.298;2023-04-01T16:53:45;1.95;;;1.10;;
43620;SDS011;29213;50.770;7.298;2023-04-01T16:56:23;2.25;;;1.00;;
43620;SDS011;29213;50.770;7.298;2023-04-01T16:59:02;2.70;;;1.30;;
43620;SDS011;29213;50.770;7.298;2023-04-01T17:04:47;2.40;;;1.20;;
43620;SDS011;29213;50.770;7.298;2023-04-01T17:18:09;3.05;;;0.90;;
43620;SDS011;29213;50.770;7.298;2023-04-01T17:20:53;1.80;;;1.00;;
43620;SDS011;29213;50.770;7.298;2023-04-01T17:23:29;1.70;;;0.90;;
43620;SDS011;29213;50.770;7.298;2023-04-01T17:26:20;1.88;;;1.00;;
43620;SDS011;29213;50.770;7.298;2023-04-01T17:31:40;3.80;;;1.10;;
43620;SDS011;29213;50.770;7.298;2023-04-01T17:34:46;1.83;;;0.88;;
43620;SDS011;29213;50.770;7.298;2023-04-01T17:37:12;2.25;;;0.90;;
43620;SDS011;29213;50.770;7.298;2023-04-01T17:39:51;1.65;;;0.85;;
43620;SDS011;29213;50.770;7.298;2023-04-01T17:42:42;2.55;;;0.90;;
43620;SDS011;29213;50.770;7.298;2023-04-01T17:48:18;2.88;;;1.10;;
43620;SDS011;29213;50.770;7.298;2023-04-01T17:51:17;1.75;;;0.98;;
43620;SDS011;29213;50.770;7.298;2023-04-01T18:04:37;2.00;;;0.90;;
43620;SDS011;29213;50.770;7.298;2023-04-01T18:07:18;1.63;;;1.00;;
43620;SDS011;29213;50.770;7.298;2023-04-01T18:12:40;3.00;;;1.25;;
43620;SDS011;29213;50.770;7.298;2023-04-01T18:21:27;2.05;;;1.02;;
43620;SDS011;29213;50.770;7.298;2023-04-01T18:24:24;2.65;;;1.02;;
43620;SDS011;29213;50.770;7.298;2023-04-01T18:27:03;1.90;;;1.00;;
43620;SDS011;29213;50.770;7.298;2023-04-01T18:29:41;1.25;;;0.80;;
43620;SDS011;29213;50.770;7.298;2023-04-01T18:39:49;2.45;;;1.17;;
43620;SDS011;29213;50.770;7.298;2023-04-01T18:45:10;2.55;;;1.10;;
43620;SDS011;29213;50.770;7.298;2023-04-01T18:47:45;2.15;;;1.10;;
43620;SDS011;29213;50.770;7.298;2023-04-01T18:56:03;2.35;;;1.20;;
43620;SDS011;29213;50.770;7.298;2023-04-01T18:58:52;2.50;;;1.30;;
43620;SDS011;29213;50.770;7.298;2023-04-01T19:01:38;2.70;;;1.30;;
43620;SDS011;29213;50.770;7.298;2023-04-01T19:04:19;2.15;;;1.10;;
43620;SDS011;29213;50.770;7.298;2023-04-01T19:06:56;2.40;;;1.30;;
43620;SDS011;29213;50.770;7.298;2023-04-01T19:12:21;1.95;;;1.02;;
43620;SDS011;29213;50.770;7.298;2023-04-01T19:15:14;2.80;;;1.20;;
43620;SDS011;29213;50.770;7.298;2023-04-01T19:25:56;3.35;;;1.20;;
43620;SDS011;29213;50.770;7.298;2023-04-01T19:28:35;5.53;;;1.67;;
43620;SDS011;29213;50.770;7.298;2023-04-01T19:31:15;2.50;;;1.33;;
43620;SDS011;29213;50.770;7.298;2023-04-01T19:36:49;2.75;;;1.40;;
43620;SDS011;29213;50.770;7.298;2023-04-01T19:39:39;2.93;;;1.50;;
43620;SDS011;29213;50.770;7.298;2023-04-01T19:42:21;3.03;;;1.60;;
43620;SDS011;29213;50.770;7.298;2023-04-01T19:44:54;2.90;;;1.70;;
43620;SDS011;29213;50.770;7.298;2023-04-01T19:47:45;2.92;;;1.70;;
43620;SDS011;29213;50.770;7.298;2023-04-01T19:50:27;3.67;;;1.95;;
43620;SDS011;29213;50.770;7.298;2023-04-01T19:52:54;6.20;;;2.17;;
43620;SDS011;29213;50.770;7.298;2023-04-01T19:55:36;2.83;;;1.75;;
43620;SDS011;29213;50.770;7.298;2023-04-01T20:01:27;3.35;;;2.10;;
43620;SDS011;29213;50.770;7.298;2023-04-01T20:04:03;3.13;;;1.90;;
43620;SDS011;29213;50.770;7.298;2023-04-01T20:06:59;3.35;;;2.03;;
43620;SDS011;29213;50.770;7.298;2023-04-01T20:17:30;4.05;;;2.13;;
43620;SDS011;29213;50.770;7.298;2023-04-01T20:19:59;3.00;;;2.10;;
43620;SDS011;29213;50.770;7.298;2023-04-01T20:22:31;3.00;;;1.90;;
43620;SDS011;29213;50.770;7.298;2023-04-01T20:28:13;2.65;;;1.83;;
43620;SDS011;29213;50.770;7.298;2023-04-01T20:30:58;3.80;;;2.00;;
43620;SDS011;29213;50.770;7.298;2023-04-01T20:39:34;2.88;;;1.80;;
43620;SDS011;29213;50.770;7.298;2023-04-01T20:45:44;3.17;;;1.70;;
43620;SDS011;29213;50.770;7.298;2023-04-01T20:50:53;3.25;;;1.63;;
43620;SDS011;29213;50.770;7.298;2023-04-01T20:53:35;3.30;;;1.60;;
43620;SDS011;29213;50.770;7.298;2023-04-01T20:58:46;2.70;;;1.50;;
43620;SDS011;29213;50.770;7.298;2023-04-01T21:17:58;4.05;;;1.80;;
43620;SDS011;29213;50.770;7.298;2023-04-01T21:20:39;3.30;;;1.75;;
43620;SDS011;29213;50.770;7.298;2023-04-01T21:23:29;2.65;;;1.70;;
43620;SDS011;29213;50.770;7.298;2023-04-01T21:29:18;2.78;;;1.50;;
43620;SDS011;29213;50.770;7.298;2023-04-01T21:32:14;2.90;;;1.73;;
43620;SDS011;29213;50.770;7.298;2023-04-01T21:34:48;2.92;;;1.35;;
43620;SDS011;29213;50.770;7.298;2023-04-01T21:42:49;2.63;;;1.08;;
43620;SDS011;29213;50.770;7.298;2023-04-01T21:45:37;3.42;;;1.25;;
43620;SDS011;29213;50.770;7.298;2023-04-01T21:48:21;2.33;;;1.23;;
43620;SDS011;29213;50.770;7.298;2023-04-01T21:59:44;1.70;;;0.90;;
43620;SDS011;29213;50.770;7.298;2023-04-01T22:02:40;2.00;;;1.00;;
43620;SDS011;29213;50.770;7.298;2023-04-01T22:07:36;1.70;;;0.90;;
43620;SDS011;29213;50.770;7.298;2023-04-01T22:10:20;2.00;;;1.10;;
43620;SDS011;29213;50.770;7.298;2023-04-01T22:13:10;2.08;;;0.90;;
43620;SDS011;29213;50.770;7.298;2023-04-01T22:21:43;2.63;;;0.93;;
43620;SDS011;29213;50.770;7.298;2023-04-01T22:24:23;3.17;;;1.02;;
43620;SDS011;29213;50.770;7.298;2023-04-01T22:27:11;1.67;;;0.82;;
43620;SDS011;29213;50.770;7.298;2023-04-01T22:32:25;1.67;;;0.93;;
43620;SDS011;29213;50.770;7.298;2023-04-01T22:35:12;1.80;;;1.00;;
43620;SDS011;29213;50.770;7.298;2023-04-01T22:38:12;4.47;;;1.00;;
43620;SDS011;29213;50.770;7.298;2023-04-01T22:43:49;1.83;;;0.90;;
43620;SDS011;29213;50.770;7.298;2023-04-01T22:49:18;1.23;;;0.80;;
43620;SDS011;29213;50.770;7.298;2023-04-01T22:52:03;2.10;;;1.08;;
43620;SDS011;29213;50.770;7.298;2023-04-01T22:54:41;2.25;;;1.00;;
43620;SDS011;29213;50.770;7.298;2023-04-01T22:57:12;1.95;;;1.02;;
43620;SDS011;29213;50.770;7.298;2023-04-01T23:00:05;2.28;;;1.10;;
43620;SDS011;29213;50.770;7.298;2023-04-01T23:02:46;2.72;;;1.17;;
43620;SDS011;29213;50.770;7.298;2023-04-01T23:05:31;2.50;;;1.48;;
43620;SDS011;29213;50.770;7.298;2023-04-01T23:10:58;2.30;;;1.40;;
43620;SDS011;29213;50.770;7.298;2023-04-01T23:13:30;2.65;;;1.52;;
43620;SDS011;29213;50.770;7.298;2023-04-01T23:16:00;2.65;;;1.52;;
43620;SDS011;29213;50.770;7.298;2023-04-01T23:21:14;2.42;;;1.50;;
43620;SDS011;29213;50.770;7.298;2023-04-01T23:26:47;2.35;;;1.50;;
43620;SDS011;29213;50.770;7.298;2023-04-01T23:29:23;3.17;;;1.77;;
43620;SDS011;29213;50.770;7.298;2023-04-01T23:31:57;3.00;;;1.70;;
43620;SDS011;29213;50.770;7.298;2023-04-01T23:34:31;2.65;;;1.48;;
43620;SDS011;29213;50.770;7.298;2023-04-01T23:37:12;2.45;;;1.35;;
43620;SDS011;29213;50.770;7.298;2023-04-01T23:39:51;2.53;;;1.50;;
43620;SDS011;29213;50.770;7.298;2023-04-01T23:42:26;2.47;;;1.42;;
43620;SDS011;29213;50.770;7.298;2023-04-01T23:44:58;2.65;;;1.40;;
43620;SDS011;29213;50.770;7.298;2023-04-01T23:47:27;2.42;;;1.40;;
43620;SDS011;29213;50.770;7.298;2023-04-01T23:49:56;2.40;;;1.20;;